Hauptseite
METAR-TAF:

METAR-TAF

Flughäfen :

Flughafen Mauritius

Mauritius, Mauritius

Breite: 20-26S, Länge: 057-40E, Höhe: 55 m

Beobachtung

Neuester Wetterbericht von vor 48 Minuten, um 03:00 UTC
Wind 10 kt aus Ost/Südost
Temperatur 22°C
Luftfeuchtigkeit 73%
Luftdruck 1023 hPa
Sichtweite 10 km oder mehr
Leicht bewölkt in der Höhe von 1600 ft
Durchbrochene Bewölkung in der Höhe von 5000 ft

METAR: FIMP 210300Z 12010KT 9999 FEW016 BKN050 22/17 Q1023

Zeit: 07:48 (03:48 UTC)

Prognose

Neuester Wetterbericht von vor 4 Stunden und 18 Minuten, um 23:30 UTC
Gültige Prognose vom 21 um 00 UTC bis 22 um 06 UTC
Wind 10 kt aus Südost, Böen bis zu 20 kt
Sichtweite 10 km oder mehr
Aufgelockert bewölkt in der Höhe von 1600 ft

TAF: FIMP 202330Z 2100/2206 13010G20KT 9999 SCT016

Wetterbeobachtungen und Prognosen von mehr als 4000 Flughäfen (METAR und TAF Bericht).

Die verfügbaren Stationen werden durch gelbe und rote Markierungen auf der Karte dargestellt.

Führen Sie die Maus auf sie, um den Namen der Station zu sehen.

Darauf klicken, um die Beobachtung von Wetterbeobachtungen und Prognosen zu sehen.

Um die Karte zu ändern : klicken Sie auf den grünen Tasten mit einem schwarzen Kreuz Zum Vergrößern, auf den grünen Button mit einem Gedankenstrich zu verkleinern, oder auf die grünen Pfeile für benachbarte Karten.


METAR-TAF: